Time;durP1;ratioP1;P1;durP2;ratioP2;P2;SDS_P1;SDS_P2;PMS_P1;PMS_P2;Temp;Humidity;BMP_temperature;BMP_pressure;BME280_temperature;BME280_humidity;BME280_pressure;Samples;Min_cycle;Max_cycle;Signal;HPM_P1;HPM_P2
2022/06/05 00:01:16;;;;;;;;;;;16.40;73.70;;;;;;5072557;28;20074;-75
2022/06/05 00:03:59;;;;;;;11.07;7.60;;;16.40;73.40;;;;;;5050985;28;19916;-76
2022/06/05 00:06:31;;;;;;;19.05;9.63;;;16.40;73.00;;;;;;5071078;28;20036;-76
2022/06/05 00:09:15;;;;;;;18.60;8.45;;;16.40;75.20;;;;;;5072808;28;20385;-76
2022/06/05 00:12:05;;;;;;;16.05;8.35;;;16.40;75.90;;;;;;5067848;28;20032;-77
2022/06/05 00:14:30;;;;;;;17.90;9.40;;;16.30;76.50;;;;;;5072109;28;20021;-77
2022/06/05 00:16:56;;;;;;;15.73;8.93;;;16.20;76.60;;;;;;5072051;28;20027;-76
2022/06/05 00:19:22;;;;;;;21.48;9.15;;;16.20;76.50;;;;;;5071890;28;20089;-76
2022/06/05 00:21:49;;;;;;;12.15;8.15;;;16.20;77.40;;;;;;5071724;28;20070;-75
2022/06/05 00:24:15;;;;;;;17.35;9.38;;;16.10;77.40;;;;;;5071656;28;20373;-76
2022/06/05 00:27:00;;;;;;;14.73;9.07;;;16.10;77.60;;;;;;5071912;28;20104;-77
2022/06/05 00:30:01;;;;;;;14.30;8.27;;;16.00;78.00;;;;;;5063951;28;20390;-76
2022/06/05 00:32:35;;;;;;;18.95;9.45;;;16.00;78.10;;;;;;5071982;28;20028;-77
2022/06/05 00:35:01;;;;;;;17.52;9.40;;;15.90;78.40;;;;;;5071997;28;20021;-76
2022/06/05 00:37:48;;;;;;;17.98;8.75;;;15.80;78.50;;;;;;5069912;28;20047;-76
2022/06/05 00:40:36;;;;;;;21.77;8.80;;;15.80;78.80;;;;;;5069788;28;20036;-75
2022/06/05 00:43:06;;;;;;;15.98;8.40;;;15.80;79.20;;;;;;5071488;28;20043;-77
2022/06/05 00:45:32;;;;;;;24.77;9.15;;;15.70;79.60;;;;;;5070985;28;20446;-77
2022/06/05 00:47:58;;;;;;;21.05;8.98;;;15.70;79.50;;;;;;5071664;28;20076;-77
2022/06/05 00:50:28;;;;;;;22.88;8.18;;;15.70;79.80;;;;;;5072025;28;20020;-76
2022/06/05 00:52:58;;;;;;;16.13;9.07;;;15.70;79.90;;;;;;5079474;28;20481;-76
2022/06/05 00:55:27;;;;;;;17.67;8.77;;;15.80;80.20;;;;;;5070567;28;20143;-75
2022/06/05 00:57:54;;;;;;;16.40;8.85;;;15.80;80.10;;;;;;5053646;28;20029;-76
2022/06/05 01:00:23;;;;;;;18.00;9.07;;;15.80;80.20;;;;;;5072039;28;20107;-76
2022/06/05 01:02:53;;;;;;;16.38;7.25;;;15.80;80.40;;;;;;5071428;28;20037;-76
2022/06/05 01:05:20;;;;;;;20.13;9.13;;;15.90;80.50;;;;;;5071553;28;20023;-76
2022/06/05 01:07:47;;;;;;;19.08;8.93;;;15.90;80.50;;;;;;5071452;28;20025;-76
2022/06/05 01:10:14;;;;;;;15.98;8.18;;;15.90;80.40;;;;;;5053405;28;20039;-78
2022/06/05 01:12:53;;;;;;;14.55;7.90;;;15.90;80.40;;;;;;5071160;28;20029;-79
2022/06/05 01:15:46;;;;;;;12.90;8.23;;;15.90;80.40;;;;;;5053040;28;20393;-76
2022/06/05 01:18:19;;;;;;;19.02;7.93;;;15.80;80.00;;;;;;5071120;28;20490;-76
2022/06/05 01:21:12;;;;;;;18.25;7.80;;;15.80;80.30;;;;;;5071295;28;20049;-76
2022/06/05 01:23:44;;;;;;;18.50;8.45;;;15.80;79.90;;;;;;5067599;28;20101;-76
2022/06/05 01:26:14;;;;;;;12.15;6.68;;;15.90;79.60;;;;;;5071430;28;20516;-77
2022/06/05 01:28:51;;;;;;;11.32;6.45;;;15.90;77.20;;;;;;5071348;28;20020;-76
2022/06/05 01:31:29;;;;;;;23.25;9.38;;;15.90;76.10;;;;;;5071327;28;20123;-76
2022/06/05 01:34:24;;;;;;;26.05;9.98;;;15.90;78.30;;;;;;5071074;28;20497;-76
2022/06/05 01:36:57;;;;;;;26.13;9.88;;;15.80;79.20;;;;;;5056865;28;20040;-76
2022/06/05 01:39:35;;;;;;;21.05;7.95;;;15.80;79.90;;;;;;5069202;28;20029;-75
2022/06/05 01:42:05;;;;;;;20.23;8.48;;;15.70;80.20;;;;;;5052843;28;20375;-77
2022/06/05 01:44:42;;;;;;;16.13;8.95;;;15.60;80.10;;;;;;5071217;28;20230;-76
2022/06/05 01:47:25;;;;;;;18.83;9.30;;;15.60;80.10;;;;;;5069211;28;20021;-76
2022/06/05 01:50:00;;;;;;;20.20;7.90;;;15.50;80.60;;;;;;5071042;28;20616;-77
2022/06/05 01:52:52;;;;;;;22.38;8.88;;;15.60;81.40;;;;;;5070159;28;20023;-78
2022/06/05 01:55:27;;;;;;;15.25;8.20;;;15.70;87.70;;;;;;5070870;28;20428;-76
2022/06/05 01:57:57;;;;;;;17.58;8.20;;;15.80;90.30;;;;;;5070290;28;20048;-76
2022/06/05 02:00:23;;;;;;;14.15;8.27;;;15.50;81.30;;;;;;5035723;28;20447;-77
2022/06/05 02:02:55;;;;;;;16.02;7.88;;;15.50;80.90;;;;;;5073445;28;20039;-76
2022/06/05 02:05:31;;;;;;;15.80;7.78;;;15.50;80.60;;;;;;5056570;28;20104;-75
2022/06/05 02:08:06;;;;;;;11.75;8.25;;;15.50;79.80;;;;;;5072500;28;20039;-76
2022/06/05 02:10:47;;;;;;;21.17;7.88;;;15.60;79.90;;;;;;5074387;28;20435;-77
2022/06/05 02:13:13;;;;;;;12.55;7.65;;;15.60;79.60;;;;;;5074271;28;20012;-76
2022/06/05 02:15:39;;;;;;;11.63;7.85;;;15.70;78.70;;;;;;5074128;28;20099;-78
2022/06/05 02:18:05;;;;;;;15.63;7.60;;;15.70;78.30;;;;;;5074075;28;20485;-77
2022/06/05 02:20:31;;;;;;;22.92;9.00;;;15.80;78.30;;;;;;5074298;28;20032;-77
2022/06/05 02:22:57;;;;;;;17.15;9.02;;;15.80;78.10;;;;;;5069719;28;20120;-76
2022/06/05 02:25:25;;;;;;;14.75;7.47;;;15.90;77.90;;;;;;5069175;28;20044;-76
2022/06/05 02:27:58;;;;;;;10.60;7.13;;;16.00;77.50;;;;;;5074136;28;20028;-76
2022/06/05 02:30:46;;;;;;;16.75;8.32;;;16.10;77.40;;;;;;5074335;28;20100;-76
2022/06/05 02:33:15;;;;;;;9.68;7.80;;;16.10;76.80;;;;;;5062594;28;20029;-76
2022/06/05 02:35:46;;;;;;;13.35;8.25;;;16.20;77.10;;;;;;5074342;28;20020;-76
2022/06/05 02:38:35;;;;;;;11.40;7.60;;;16.30;76.30;;;;;;5071609;28;20100;-75
2022/06/05 02:41:19;;;;;;;13.88;6.63;;;16.40;75.50;;;;;;5084566;28;20035;-77
2022/06/05 02:47:09;;;;;;;;;;;16.60;74.70;;;;;;5069877;28;20024;-76
2022/06/05 02:49:39;;;;;;;11.90;7.20;;;16.60;74.40;;;;;;5032720;28;19921;-77
2022/06/05 02:52:07;;;;;;;11.80;7.45;;;16.70;73.20;;;;;;5052832;28;20033;-77
2022/06/05 02:54:39;;;;;;;14.20;6.38;;;16.70;73.10;;;;;;5052003;28;20378;-78
2022/06/05 02:57:05;;;;;;;11.38;6.60;;;16.90;72.80;;;;;;5068916;28;20111;-78
2022/06/05 02:59:31;;;;;;;11.32;7.40;;;17.00;72.30;;;;;;5053299;28;20360;-77
2022/06/05 03:04:42;;;;;;;14.05;6.05;;;17.30;71.40;;;;;;5053100;28;20036;-77
2022/06/05 03:07:08;;;;;;;10.48;7.03;;;17.50;70.20;;;;;;5053281;28;20013;-78
2022/06/05 03:09:35;;;;;;;14.98;7.43;;;17.70;69.90;;;;;;5053562;28;20108;-77
2022/06/05 03:12:01;;;;;;;11.23;7.05;;;17.70;69.60;;;;;;5053269;28;20043;-78
2022/06/05 03:14:27;;;;;;;11.93;5.43;;;17.80;69.90;;;;;;5053163;28;20103;-78
2022/06/05 03:16:52;;;;;;;9.57;5.57;;;17.90;68.80;;;;;;5053105;28;20025;-77
2022/06/05 03:19:19;;;;;;;11.80;6.60;;;18.10;68.80;;;;;;5052964;28;20020;-78
2022/06/05 03:21:45;;;;;;;14.23;6.25;;;18.50;68.20;;;;;;5053144;28;20122;-78
2022/06/05 03:24:11;;;;;;;14.07;6.65;;;18.80;67.30;;;;;;5053259;28;20503;-77
2022/06/05 03:26:37;;;;;;;11.48;5.53;;;19.10;66.40;;;;;;5053060;28;20410;-79
2022/06/05 03:29:03;;;;;;;8.95;5.53;;;19.20;65.20;;;;;;5034937;28;20025;-78
2022/06/05 03:31:29;;;;;;;11.63;5.47;;;19.30;65.70;;;;;;5035151;28;20442;-77
2022/06/05 03:33:55;;;;;;;6.80;5.25;;;19.20;64.30;;;;;;5052578;28;20021;-77
2022/06/05 03:36:21;;;;;;;6.93;4.50;;;19.00;63.90;;;;;;5052797;28;20118;-76
2022/06/05 03:38:47;;;;;;;7.40;4.18;;;19.00;62.90;;;;;;5052929;28;20064;-76
2022/06/05 03:41:16;;;;;;;5.88;4.60;;;18.90;63.20;;;;;;5052633;28;20035;-76
2022/06/05 03:43:43;;;;;;;9.27;4.90;;;18.90;63.80;;;;;;5052848;28;20043;-77
2022/06/05 03:46:11;;;;;;;5.43;4.47;;;18.90;64.90;;;;;;5052665;28;20379;-77
2022/06/05 03:48:38;;;;;;;6.68;4.60;;;18.90;63.30;;;;;;5050366;28;20084;-76
2022/06/05 03:51:13;;;;;;;11.43;4.95;;;18.90;64.00;;;;;;5072392;28;20017;-77
2022/06/05 03:53:39;;;;;;;9.48;5.47;;;19.00;63.60;;;;;;5072130;28;20028;-77
2022/06/05 03:56:13;;;;;;;8.30;5.20;;;18.90;63.70;;;;;;5070901;28;20078;-78
2022/06/05 03:58:40;;;;;;;9.50;5.40;;;18.90;64.00;;;;;;5072190;28;20044;-78
2022/06/05 04:01:10;;;;;;;8.48;5.35;;;18.80;64.10;;;;;;5072507;28;20029;-76
2022/06/05 04:03:36;;;;;;;8.95;6.03;;;18.70;63.50;;;;;;5072062;28;20091;-78
2022/06/05 04:06:10;;;;;;;8.13;5.85;;;18.70;63.90;;;;;;5072335;28;20024;-78
2022/06/05 04:08:37;;;;;;;7.68;5.60;;;18.60;63.50;;;;;;5072228;28;20031;-77
2022/06/05 04:11:11;;;;;;;11.75;5.95;;;18.60;64.00;;;;;;5072027;28;20031;-78
2022/06/05 04:13:37;;;;;;;14.07;6.30;;;18.70;63.80;;;;;;5071959;28;20033;-75
2022/06/05 04:16:18;;;;;;;9.18;7.40;;;18.90;64.10;;;;;;5071951;28;20096;-76
2022/06/05 04:18:44;;;;;;;11.88;7.75;;;18.80;64.20;;;;;;5079748;28;20038;-77
2022/06/05 04:21:15;;;;;;;13.77;7.50;;;18.70;64.50;;;;;;5072684;28;20017;-76
2022/06/05 04:23:41;;;;;;;17.70;7.63;;;18.50;65.50;;;;;;5074761;28;20047;-78
2022/06/05 04:26:09;;;;;;;12.45;7.22;;;18.60;65.90;;;;;;5089343;28;20342;-78
2022/06/05 04:28:36;;;;;;;9.10;7.72;;;18.90;64.90;;;;;;5067871;28;20025;-76
2022/06/05 04:31:03;;;;;;;9.65;6.78;;;19.00;64.50;;;;;;5053894;28;20079;-78
2022/06/05 04:33:32;;;;;;;8.90;6.03;;;19.20;63.90;;;;;;5071565;28;20033;-77
2022/06/05 04:35:58;;;;;;;14.25;8.45;;;19.10;63.50;;;;;;5071856;28;20027;-77
2022/06/05 04:38:24;;;;;;;9.23;8.00;;;18.80;64.70;;;;;;5071541;28;20094;-77
2022/06/05 04:40:50;;;;;;;9.63;7.55;;;18.50;65.90;;;;;;5071327;28;20021;-77
2022/06/05 04:43:15;;;;;;;10.25;8.15;;;18.40;66.60;;;;;;5071276;28;20421;-77
2022/06/05 04:45:44;;;;;;;14.02;10.32;;;18.20;67.80;;;;;;5058415;28;20033;-77
2022/06/05 04:48:10;;;;;;;14.07;8.30;;;18.00;69.10;;;;;;5070499;28;20090;-76
2022/06/05 04:50:37;;;;;;;10.35;8.68;;;17.90;69.90;;;;;;5070232;28;20024;-76
2022/06/05 04:53:03;;;;;;;12.77;8.98;;;17.80;71.00;;;;;;5071547;28;20127;-76
2022/06/05 04:55:29;;;;;;;12.60;8.48;;;17.60;70.90;;;;;;5053401;28;20104;-78
2022/06/05 04:57:55;;;;;;;11.70;7.35;;;17.50;71.80;;;;;;5071236;28;20052;-76
2022/06/05 05:00:23;;;;;;;9.80;6.45;;;17.30;72.40;;;;;;5071027;28;20035;-76
2022/06/05 05:02:49;;;;;;;10.70;6.63;;;17.20;71.80;;;;;;5070903;28;20037;-75
2022/06/05 05:05:15;;;;;;;9.20;5.90;;;17.10;71.80;;;;;;5071204;28;20016;-76
2022/06/05 05:07:41;;;;;;;6.80;6.13;;;16.80;72.50;;;;;;5071214;28;20032;-76
2022/06/05 05:10:07;;;;;;;11.10;4.85;;;16.50;74.20;;;;;;5071172;28;20505;-77
2022/06/05 05:12:33;;;;;;;9.07;4.75;;;16.40;76.00;;;;;;5071042;28;20478;-76
2022/06/05 05:14:59;;;;;;;6.82;4.53;;;15.90;75.90;;;;;;5071283;28;20051;-78
2022/06/05 05:17:25;;;;;;;8.05;5.00;;;15.80;79.30;;;;;;5052966;28;20056;-76
2022/06/05 05:19:51;;;;;;;4.97;4.07;;;15.60;81.90;;;;;;5070954;28;20077;-75
2022/06/05 05:22:16;;;;;;;6.03;5.00;;;15.20;83.50;;;;;;5071153;28;20036;-76
2022/06/05 05:24:43;;;;;;;8.73;4.57;;;14.60;86.40;;;;;;5071009;28;20086;-78
2022/06/05 05:27:09;;;;;;;7.55;5.65;;;14.00;90.10;;;;;;5071224;28;20243;-76
2022/06/05 05:29:39;;;;;;;9.65;6.25;;;13.60;91.30;;;;;;5071225;28;20476;-76
2022/06/05 05:32:05;;;;;;;8.60;5.55;;;13.30;92.50;;;;;;5070957;28;20012;-76
2022/06/05 05:34:30;;;;;;;7.93;5.13;;;13.10;93.30;;;;;;5071006;28;20240;-77
2022/06/05 05:36:56;;;;;;;5.13;4.50;;;13.00;94.00;;;;;;5072345;28;20024;-76
2022/06/05 05:42:07;;;;;;;7.80;4.60;;;13.00;94.70;;;;;;5074624;28;20504;-77
2022/06/05 05:44:43;;;;;;;6.00;4.68;;;12.80;95.30;;;;;;5074747;28;20032;-77
2022/06/05 05:47:13;;;;;;;5.22;4.22;;;12.80;95.60;;;;;;5074472;28;20017;-77
2022/06/05 05:49:39;;;;;;;6.55;4.45;;;12.70;95.80;;;;;;5071008;28;20036;-77
2022/06/05 05:52:06;;;;;;;7.65;3.95;;;12.60;96.20;;;;;;5074281;28;20075;-75
2022/06/05 05:54:34;;;;;;;5.60;5.00;;;12.60;96.90;;;;;;5074121;28;20493;-77
2022/06/05 05:56:59;;;;;;;7.05;5.65;;;12.70;97.40;;;;;;5074591;28;20036;-77
2022/06/05 05:59:25;;;;;;;6.75;5.80;;;12.80;97.50;;;;;;5074430;28;20362;-78
2022/06/05 06:01:51;;;;;;;8.95;5.50;;;13.00;97.90;;;;;;5074136;28;20024;-77
2022/06/05 06:04:17;;;;;;;5.22;4.65;;;13.10;98.10;;;;;;5074599;28;20063;-75
2022/06/05 06:06:45;;;;;;;7.03;5.63;;;13.30;97.90;;;;;;5074809;28;20027;-77
2022/06/05 06:09:11;;;;;;;6.38;5.78;;;13.30;97.90;;;;;;5064483;28;20027;-77
2022/06/05 06:11:37;;;;;;;6.30;5.70;;;13.40;98.30;;;;;;5065892;28;20374;-78
2022/06/05 06:14:03;;;;;;;7.43;5.15;;;13.50;98.40;;;;;;5070508;28;20075;-77
2022/06/05 06:16:29;;;;;;;6.35;5.15;;;13.60;98.30;;;;;;5073820;28;20450;-77
2022/06/05 06:18:56;;;;;;;7.85;5.47;;;13.80;98.10;;;;;;5052632;28;20111;-78
2022/06/05 06:21:22;;;;;;;9.32;5.95;;;13.80;97.90;;;;;;5070566;28;20032;-78
2022/06/05 06:23:48;;;;;;;6.73;5.93;;;13.90;97.60;;;;;;5069706;28;20036;-78
2022/06/05 06:26:16;;;;;;;8.00;5.90;;;13.90;97.30;;;;;;5068670;28;20019;-79
2022/06/05 06:28:41;;;;;;;8.13;6.25;;;14.10;97.50;;;;;;5073941;28;20127;-77
2022/06/05 06:31:10;;;;;;;6.93;5.90;;;14.30;97.30;;;;;;5074014;28;20036;-78
2022/06/05 06:33:37;;;;;;;7.03;5.80;;;14.70;96.80;;;;;;5055732;28;20032;-79
2022/06/05 06:36:05;;;;;;;6.72;5.93;;;15.20;96.10;;;;;;5073783;28;20016;-78
2022/06/05 06:38:31;;;;;;;7.85;5.32;;;17.90;96.50;;;;;;5073878;28;20043;-77
2022/06/05 06:41:05;;;;;;;8.60;5.70;;;19.40;89.40;;;;;;5073947;28;20031;-77
2022/06/05 06:43:32;;;;;;;8.88;6.30;;;19.70;82.70;;;;;;5073475;28;20024;-79
2022/06/05 06:45:58;;;;;;;6.20;5.30;;;19.40;81.00;;;;;;5073650;28;20021;-79
2022/06/05 06:48:25;;;;;;;8.32;6.22;;;18.80;80.60;;;;;;5069641;28;20056;-79
2022/06/05 06:50:53;;;;;;;7.47;5.72;;;18.80;85.00;;;;;;5073447;28;20122;-79
2022/06/05 06:53:19;;;;;;;7.28;5.63;;;20.40;80.30;;;;;;5073355;28;20424;-79
2022/06/05 06:55:45;;;;;;;6.27;5.43;;;20.40;75.20;;;;;;5071940;28;20012;-79
2022/06/05 06:58:11;;;;;;;9.88;6.10;;;19.80;75.50;;;;;;5073409;28;20035;-79
2022/06/05 07:00:37;;;;;;;9.57;5.40;;;19.40;77.10;;;;;;5073903;28;20025;-78
2022/06/05 07:03:03;;;;;;;9.00;5.47;;;19.20;77.90;;;;;;5072937;28;20032;-77
2022/06/05 07:05:29;;;;;;;6.10;5.50;;;18.80;78.50;;;;;;5072696;28;20423;-76
2022/06/05 07:07:55;;;;;;;6.85;6.07;;;18.50;80.50;;;;;;5072740;28;20052;-78
2022/06/05 07:10:21;;;;;;;8.07;6.30;;;18.10;81.70;;;;;;5072434;28;20024;-78
2022/06/05 07:12:48;;;;;;;9.30;5.95;;;17.90;81.90;;;;;;5072517;28;20021;-75
2022/06/05 07:15:16;;;;;;;5.78;4.78;;;17.50;82.50;;;;;;5072688;28;20035;-79
2022/06/05 07:17:42;;;;;;;5.80;5.20;;;17.10;82.70;;;;;;5073068;28;20028;-77
2022/06/05 07:20:08;;;;;;;6.78;4.93;;;17.50;83.70;;;;;;5072712;28;20032;-79
2022/06/05 07:22:34;;;;;;;7.05;5.40;;;18.10;79.80;;;;;;5072774;28;20035;-76
2022/06/05 07:25:00;;;;;;;6.38;5.78;;;17.80;79.80;;;;;;5072532;28;20335;-77
2022/06/05 07:27:27;;;;;;;8.27;5.30;;;17.20;82.10;;;;;;5072609;28;20028;-77
2022/06/05 07:29:53;;;;;;;6.20;5.68;;;16.80;84.10;;;;;;5071435;28;20118;-77
2022/06/05 07:32:20;;;;;;;5.20;4.55;;;16.50;85.70;;;;;;5072645;28;20042;-78
2022/06/05 07:34:46;;;;;;;6.15;5.55;;;16.30;87.10;;;;;;5072580;28;20489;-78
2022/06/05 07:37:13;;;;;;;6.38;5.03;;;16.20;86.90;;;;;;5071877;28;20119;-77
2022/06/05 07:39:40;;;;;;;9.30;5.40;;;16.70;87.90;;;;;;5071539;28;20020;-76
2022/06/05 07:42:06;;;;;;;7.15;4.90;;;17.10;85.70;;;;;;5071929;28;20370;-79
2022/06/05 07:44:33;;;;;;;5.27;4.77;;;18.80;82.70;;;;;;5072213;28;20504;-77
2022/06/05 07:47:06;;;;;;;6.85;5.30;;;20.20;75.30;;;;;;5069676;28;20321;-78
2022/06/05 07:49:32;;;;;;;6.97;5.20;;;19.80;74.50;;;;;;5052389;28;20072;-78
2022/06/05 07:54:43;;;;;;;5.70;4.60;;;18.60;76.80;;;;;;5055643;28;20041;-80
2022/06/05 07:57:12;;;;;;;7.30;4.88;;;18.50;77.90;;;;;;5068142;28;20023;-76
2022/06/05 07:59:49;;;;;;;7.70;5.53;;;18.50;77.40;;;;;;5056421;28;20052;-82
2022/06/05 08:02:33;;;;;;;6.43;5.78;;;18.80;78.20;;;;;;5054001;28;20522;-80
2022/06/05 08:04:59;;;;;;;5.05;4.50;;;19.70;77.10;;;;;;5044040;28;20053;-82
2022/06/05 08:07:27;;;;;;;5.40;4.22;;;20.60;71.80;;;;;;5052161;28;20056;-78
2022/06/05 08:09:53;;;;;;;4.45;3.97;;;20.90;71.00;;;;;;5042459;28;20021;-77
2022/06/05 08:12:20;;;;;;;6.82;4.07;;;20.60;68.80;;;;;;5066606;28;20033;-77
2022/06/05 08:14:48;;;;;;;;;;;20.00;71.00;;;;;;5052465;28;20025;-76
2022/06/05 08:17:18;;;;;;;4.47;3.58;;;19.30;72.40;;;;;;5058794;28;20285;-78
2022/06/05 08:19:45;;;;;;;4.72;4.13;;;18.70;74.90;;;;;;5051638;28;20025;-77
2022/06/05 08:22:13;;;;;;;4.50;4.10;;;18.30;76.80;;;;;;5051585;28;20033;-81
2022/06/05 08:24:39;;;;;;;4.93;3.78;;;17.90;79.20;;;;;;5033804;28;20504;-79
2022/06/05 08:27:07;;;;;;;4.82;4.13;;;17.30;81.80;;;;;;5050940;28;20039;-80
2022/06/05 08:29:33;;;;;;;4.63;4.07;;;16.80;84.70;;;;;;5051229;28;20029;-78
2022/06/05 08:31:58;;;;;;;6.70;4.75;;;16.40;87.20;;;;;;5050940;28;20122;-77
2022/06/05 08:34:24;;;;;;;5.80;4.32;;;16.20;89.80;;;;;;5051588;28;20160;-77
2022/06/05 08:41:26;;;;;;;7.72;5.50;;;16.10;89.70;;;;;;5051475;28;20418;-80
2022/06/05 08:42:58;;;;;;;5.82;4.00;;;16.20;90.30;;;;;;5049499;28;20090;-79
2022/06/05 08:45:34;;;;;;;4.43;3.17;;;16.70;89.60;;;;;;5016291;28;20117;-81
2022/06/05 08:48:06;;;;;;;6.07;2.95;;;17.10;88.40;;;;;;5050307;28;20045;-79
2022/06/05 08:50:44;;;;;;;4.00;2.67;;;18.20;86.10;;;;;;5052165;28;20036;-80
2022/06/05 08:53:38;;;;;;;2.85;2.35;;;19.80;78.90;;;;;;5051993;28;20069;-79
2022/06/05 08:56:05;;;;;;;2.08;1.83;;;20.30;72.30;;;;;;5052653;28;20486;-82
2022/06/05 08:58:53;;;;;;;6.22;2.78;;;20.80;69.40;;;;;;5051581;28;20036;-80
2022/06/05 09:01:34;;;;;;;3.67;2.58;;;20.90;68.10;;;;;;5051465;28;20108;-79
2022/06/05 09:04:12;;;;;;;6.10;2.50;;;20.40;68.50;;;;;;5051594;28;20108;-80
2022/06/05 09:06:49;;;;;;;2.20;1.90;;;19.80;69.60;;;;;;5050021;28;20466;-81
2022/06/05 09:09:21;;;;;;;6.47;2.38;;;19.30;71.10;;;;;;5048541;28;20031;-83
2022/06/05 09:11:54;;;;;;;3.65;2.40;;;19.10;72.70;;;;;;5037492;28;20029;-82
2022/06/05 09:14:34;;;;;;;2.20;2.00;;;18.70;73.90;;;;;;5051009;28;20372;-79
2022/06/05 09:17:15;;;;;;;3.38;2.00;;;18.20;74.00;;;;;;5055965;28;20052;-80
2022/06/05 09:19:42;;;;;;;2.13;1.70;;;17.80;75.10;;;;;;5037473;28;20029;-81
2022/06/05 09:22:31;;;;;;;3.10;2.10;;;17.70;75.50;;;;;;5055625;28;20029;-80
2022/06/05 09:25:02;;;;;;;2.13;1.70;;;17.60;75.40;;;;;;5055586;28;20048;-80
2022/06/05 09:27:37;;;;;;;2.20;1.70;;;17.30;76.10;;;;;;5049347;28;20035;-81
2022/06/05 09:30:13;;;;;;;2.60;1.45;;;17.00;76.90;;;;;;5065555;28;20466;-77
2022/06/05 09:32:57;;;;;;;1.20;1.00;;;16.80;77.30;;;;;;5055037;28;20013;-80
2022/06/05 09:35:33;;;;;;;1.55;1.35;;;16.70;77.60;;;;;;5041874;28;20028;-81
2022/06/05 09:38:14;;;;;;;1.40;1.00;;;16.50;78.60;;;;;;5055300;28;20013;-80
2022/06/05 09:40:52;;;;;;;2.53;1.13;;;16.50;79.00;;;;;;5036653;28;20022;-80
2022/06/05 09:43:43;;;;;;;3.53;1.65;;;16.60;79.20;;;;;;5042076;28;20037;-80
2022/06/05 09:46:24;;;;;;;2.80;1.17;;;16.80;78.60;;;;;;5056548;28;20013;-81
2022/06/05 09:49:04;;;;;;;3.42;1.00;;;16.80;77.60;;;;;;5038319;28;20041;-80
2022/06/05 09:51:30;;;;;;;1.95;1.00;;;16.90;77.40;;;;;;5054936;28;20025;-81
2022/06/05 09:54:14;;;;;;;2.10;0.77;;;17.10;76.60;;;;;;5054757;28;20068;-78
2022/06/05 10:00:03;;;;;;;2.30;1.50;;;17.20;76.20;;;;;;5042380;28;20136;-80
2022/06/05 10:02:30;;;;;;;2.72;1.08;;;17.10;75.70;;;;;;5055033;28;20052;-81
2022/06/05 10:04:56;;;;;;;2.10;1.00;;;17.10;77.00;;;;;;5055803;28;20021;-80
2022/06/05 10:07:34;;;;;;;1.60;1.10;;;17.10;75.70;;;;;;5058173;28;20079;-80
2022/06/05 10:10:07;;;;;;;1.80;1.10;;;17.80;75.50;;;;;;5055022;28;20020;-82
2022/06/05 10:12:47;;;;;;;3.53;1.30;;;19.40;71.80;;;;;;5036881;28;20051;-79
2022/06/05 10:15:20;;;;;;;2.97;1.25;;;21.20;66.50;;;;;;5043675;28;20071;-81
2022/06/05 10:17:50;;;;;;;4.68;1.75;;;;;;;;;;5054579;28;20021;-82
2022/06/05 10:20:39;;;;;;;3.58;1.88;;;24.20;56.50;;;;;;5055176;28;20017;-83
2022/06/05 10:23:32;;;;;;;1.73;1.40;;;24.10;58.20;;;;;;5050974;28;20115;-81
2022/06/05 10:26:23;;;;;;;3.58;2.97;;;24.50;57.40;;;;;;5047416;28;20032;-85
2022/06/05 10:28:53;;;;;;;2.72;1.50;;;25.70;53.10;;;;;;5042374;28;20017;-84
2022/06/05 10:31:22;;;;;;;2.22;1.20;;;25.30;51.40;;;;;;5054528;28;20395;-83
2022/06/05 10:34:06;;;;;;;2.38;1.65;;;24.10;52.80;;;;;;5053942;28;20043;-83
2022/06/05 10:36:54;;;;;;;1.60;1.23;;;23.10;55.40;;;;;;5049774;28;20446;-82
2022/06/05 10:39:35;;;;;;;2.42;1.65;;;22.20;57.80;;;;;;5052843;28;20029;-82
2022/06/05 10:42:47;;;;;;;1.20;0.95;;;21.60;60.00;;;;;;5051221;28;20040;-83
2022/06/05 10:45:15;;;;;;;2.33;1.23;;;21.00;58.60;;;;;;5053808;28;20522;-82
2022/06/05 10:47:56;;;;;;;1.73;1.45;;;20.40;60.80;;;;;;5037927;28;20051;-80
2022/06/05 10:50:44;;;;;;;2.70;1.40;;;20.20;63.00;;;;;;5073839;28;20086;-81
2022/06/05 10:53:34;;;;;;;3.17;2.03;;;20.20;62.40;;;;;;5063124;28;20017;-85
2022/06/05 10:56:36;;;;;;;2.58;2.03;;;20.00;62.40;;;;;;5073645;28;20031;-82
2022/06/05 10:59:23;;;;;;;1.98;1.10;;;19.90;63.00;;;;;;5073888;28;20099;-82
2022/06/05 11:02:37;;;;;;;2.92;1.67;;;19.80;62.00;;;;;;5073801;28;20108;-83
2022/06/05 11:05:38;;;;;;;2.38;1.33;;;19.70;62.60;;;;;;5062677;28;20024;-83
2022/06/05 11:08:23;;;;;;;3.50;1.77;;;19.50;62.80;;;;;;5052828;28;20111;-84
2022/06/05 11:13:55;;;;;;;3.23;1.10;;;19.20;63.60;;;;;;5064296;28;20048;-80
2022/06/05 11:16:33;;;;;;;4.03;1.43;;;19.10;63.80;;;;;;5073394;28;20264;-81
2022/06/05 11:19:23;;;;;;;1.25;1.15;;;19.00;63.80;;;;;;5095602;28;20028;-86
2022/06/05 11:21:51;;;;;;;1.60;1.05;;;18.90;63.80;;;;;;5062036;28;20017;-81
2022/06/05 11:24:23;;;;;;;2.17;1.70;;;18.90;64.40;;;;;;5071980;28;20206;-84
2022/06/05 11:27:31;;;;;;;4.78;3.50;;;18.90;65.90;;;;;;5055495;28;20055;-81
2022/06/05 11:30:03;;;;;;;8.70;2.05;;;19.10;67.50;;;;;;5085448;28;20040;-82
2022/06/05 11:32:44;;;;;;;3.33;2.42;;;19.50;66.30;;;;;;5071249;28;20027;-81
2022/06/05 11:35:34;;;;;;;7.68;2.33;;;19.90;65.70;;;;;;5068009;28;20031;-82
2022/06/05 11:38:37;;;;;;;2.20;1.77;;;20.00;65.60;;;;;;5073334;28;20508;-82
2022/06/05 11:41:06;;;;;;;3.22;2.00;;;20.10;65.80;;;;;;5070476;28;20017;-84
2022/06/05 11:43:34;;;;;;;5.95;3.85;;;20.30;66.60;;;;;;5068520;28;20067;-83
2022/06/05 11:46:14;;;;;;;4.68;2.40;;;20.40;65.60;;;;;;5072593;28;20066;-82
2022/06/05 11:48:52;;;;;;;3.67;2.28;;;20.20;65.10;;;;;;5061341;28;20080;-81
2022/06/05 11:51:45;;;;;;;3.15;2.10;;;19.70;65.80;;;;;;5060672;28;20031;-83
2022/06/05 11:54:19;;;;;;;2.05;1.80;;;19.30;65.70;;;;;;5073106;28;20032;-82
2022/06/05 11:56:53;;;;;;;2.35;1.75;;;19.00;66.50;;;;;;5073332;28;20022;-84
2022/06/05 11:59:58;;;;;;;3.85;2.13;;;18.70;66.90;;;;;;5072901;28;20073;-81
2022/06/05 12:02:41;;;;;;;3.30;1.73;;;18.40;67.20;;;;;;5046689;28;20045;-83
2022/06/05 12:05:24;;;;;;;3.30;2.10;;;18.30;68.40;;;;;;5061471;28;20021;-82
2022/06/05 12:07:51;;;;;;;2.63;2.33;;;18.30;68.90;;;;;;5087844;28;20107;-81
2022/06/05 12:10:28;;;;;;;3.13;2.10;;;18.10;68.80;;;;;;5072445;28;20028;-81
2022/06/05 12:13:31;;;;;;;3.10;2.00;;;18.10;70.30;;;;;;5072266;28;20244;-81
2022/06/05 12:16:11;;;;;;;4.00;2.28;;;18.10;70.60;;;;;;5071159;28;20513;-81
2022/06/05 12:18:53;;;;;;;4.43;2.58;;;18.10;70.90;;;;;;5060272;28;20051;-84
2022/06/05 12:21:21;;;;;;;4.00;2.60;;;18.30;69.70;;;;;;5037218;28;20483;-82
2022/06/05 12:24:02;;;;;;;3.35;2.38;;;18.50;68.30;;;;;;5069034;28;20040;-78
2022/06/05 12:26:46;;;;;;;6.07;3.22;;;18.50;66.30;;;;;;5054715;28;20036;-78
2022/06/05 12:29:23;;;;;;;5.43;2.97;;;18.50;66.80;;;;;;5065909;28;20025;-79
2022/06/05 12:32:01;;;;;;;5.80;3.13;;;18.60;66.70;;;;;;5075953;28;20024;-81
2022/06/05 12:34:48;;;;;;;4.50;2.85;;;19.00;66.00;;;;;;5071784;28;20453;-80
2022/06/05 12:37:14;;;;;;;3.80;2.65;;;19.10;65.60;;;;;;5071356;28;20009;-79
2022/06/05 12:39:54;;;;;;;3.58;2.67;;;19.20;65.60;;;;;;5053444;28;20195;-80
2022/06/05 12:42:35;;;;;;;4.47;2.90;;;19.30;64.20;;;;;;5066254;28;20401;-79
2022/06/05 12:45:14;;;;;;;3.47;2.35;;;19.30;64.20;;;;;;5066354;28;20029;-83
2022/06/05 12:48:05;;;;;;;3.38;2.83;;;19.30;63.60;;;;;;5064756;28;20119;-81
2022/06/05 12:50:39;;;;;;;4.10;2.60;;;19.20;63.30;;;;;;5071672;28;20501;-80
2022/06/05 12:53:14;;;;;;;3.38;2.85;;;19.10;63.60;;;;;;5071886;28;20017;-82
2022/06/05 12:55:59;;;;;;;3.38;2.75;;;19.20;63.30;;;;;;5072098;28;20378;-81
2022/06/05 12:58:45;;;;;;;3.03;2.40;;;19.10;62.20;;;;;;5072003;28;20017;-82
2022/06/05 13:01:19;;;;;;;5.40;2.17;;;19.00;61.80;;;;;;5048881;28;20028;-83
2022/06/05 13:04:27;;;;;;;3.25;2.17;;;18.90;61.70;;;;;;5072384;28;20482;-85
2022/06/05 13:07:05;;;;;;;5.88;2.72;;;18.80;62.50;;;;;;5047584;28;20024;-83
2022/06/05 13:09:31;;;;;;;5.03;2.25;;;18.70;62.90;;;;;;5069265;28;20028;-83
2022/06/05 13:12:23;;;;;;;2.58;2.25;;;18.70;61.20;;;;;;5089017;28;20029;-83
2022/06/05 13:14:52;;;;;;;3.05;2.08;;;18.60;61.80;;;;;;5073631;28;20412;-83
2022/06/05 13:17:40;;;;;;;3.38;2.40;;;18.70;60.80;;;;;;5085735;28;20043;-83
2022/06/05 13:20:13;;;;;;;4.07;2.35;;;18.70;61.50;;;;;;5078595;28;20533;-84
2022/06/05 13:22:59;;;;;;;5.40;2.47;;;18.70;62.50;;;;;;5070440;28;20037;-83
2022/06/05 13:25:33;;;;;;;2.73;2.33;;;18.70;63.30;;;;;;5063961;28;20070;-83
2022/06/05 13:28:17;;;;;;;5.80;3.05;;;18.90;63.70;;;;;;5071773;28;20470;-83
2022/06/05 13:31:20;;;;;;;3.75;2.72;;;19.10;64.50;;;;;;5089920;28;20028;-84
2022/06/05 13:33:55;;;;;;;6.82;3.00;;;19.30;65.80;;;;;;5051299;28;20040;-84
2022/06/05 13:36:34;;;;;;;4.20;2.72;;;19.00;67.60;;;;;;5072062;28;20025;-80
2022/06/05 13:39:27;;;;;;;6.55;2.80;;;18.90;68.30;;;;;;5061820;28;20553;-81